createdAt,value
2018-12-06T00:00:45.199Z,4.43
2018-12-06T00:03:13.447Z,4.46
2018-12-06T00:05:41.644Z,4.43
2018-12-06T00:08:17.695Z,4.51
2018-12-06T00:10:46.002Z,4.46
2018-12-06T00:13:14.395Z,4.42
2018-12-06T00:15:42.721Z,4.41
2018-12-06T00:18:10.915Z,4.41
2018-12-06T00:20:39.283Z,4.38
2018-12-06T00:23:07.521Z,4.37
2018-12-06T00:25:35.769Z,4.45
2018-12-06T00:28:04.275Z,4.44
2018-12-06T00:30:40.675Z,4.42
2018-12-06T00:33:09.305Z,4.44
2018-12-06T00:35:37.703Z,4.41
2018-12-06T00:38:06.057Z,4.46
2018-12-06T00:40:34.348Z,4.41
2018-12-06T00:43:02.605Z,4.36
2018-12-06T00:45:30.896Z,4.36
2018-12-06T00:47:59.135Z,4.39
2018-12-06T00:50:27.444Z,4.37
2018-12-06T00:52:55.683Z,4.39
2018-12-06T00:55:23.907Z,4.37
2018-12-06T00:57:52.260Z,4.37
2018-12-06T01:00:20.487Z,4.29
2018-12-06T01:02:48.705Z,4.33
2018-12-06T01:05:16.979Z,4.31
2018-12-06T01:07:45.257Z,4.38
2018-12-06T01:10:13.551Z,4.40
2018-12-06T01:12:42.048Z,4.42
2018-12-06T01:15:10.398Z,4.45
2018-12-06T01:17:38.627Z,4.42
2018-12-06T01:20:08.193Z,4.36
2018-12-06T01:22:36.545Z,4.45
2018-12-06T01:25:05.807Z,4.44
2018-12-06T01:27:34.016Z,4.44
2018-12-06T01:30:02.259Z,4.53
2018-12-06T01:32:30.498Z,4.47
2018-12-06T01:34:58.710Z,4.53
2018-12-06T01:37:27.081Z,4.45
2018-12-06T01:39:55.345Z,4.47
2018-12-06T01:42:23.664Z,4.44
2018-12-06T01:44:51.900Z,4.54
2018-12-06T01:47:20.248Z,4.49
2018-12-06T01:49:48.500Z,4.52
2018-12-06T01:52:16.726Z,4.61
2018-12-06T01:54:44.957Z,4.50
2018-12-06T01:57:13.200Z,4.57
2018-12-06T01:59:41.465Z,4.51
2018-12-06T02:02:09.740Z,4.51
2018-12-06T02:04:38.106Z,4.52
2018-12-06T02:07:06.361Z,4.54
2018-12-06T02:09:34.659Z,4.52
2018-12-06T02:12:02.917Z,4.61
2018-12-06T02:14:31.229Z,4.53
2018-12-06T02:16:59.483Z,4.55
2018-12-06T02:19:28.283Z,4.62
2018-12-06T02:21:56.531Z,4.57
2018-12-06T02:24:24.842Z,4.54
2018-12-06T02:26:53.060Z,4.62
2018-12-06T02:29:21.280Z,4.60
2018-12-06T02:31:49.475Z,4.58
2018-12-06T02:34:17.789Z,4.62
2018-12-06T02:36:46.036Z,4.64
2018-12-06T02:39:14.315Z,4.59
2018-12-06T02:41:42.562Z,4.62
2018-12-06T02:44:10.986Z,4.61
2018-12-06T02:46:39.340Z,4.55
2018-12-06T02:49:07.584Z,4.51
2018-12-06T02:51:35.898Z,4.59
2018-12-06T02:54:04.136Z,4.57
2018-12-06T02:56:32.353Z,4.55
2018-12-06T02:59:00.726Z,4.49
2018-12-06T03:01:28.967Z,4.47
2018-12-06T03:03:57.237Z,4.47
2018-12-06T03:06:25.475Z,4.49
2018-12-06T03:08:53.708Z,4.51
2018-12-06T03:11:22.033Z,4.41
2018-12-06T03:13:50.262Z,4.51
2018-12-06T03:16:37.388Z,4.43
2018-12-06T03:19:05.693Z,4.53
2018-12-06T03:21:33.935Z,4.50
2018-12-06T03:24:02.216Z,4.54
2018-12-06T03:26:30.485Z,4.44
2018-12-06T03:28:58.720Z,4.47
2018-12-06T03:31:26.940Z,4.47
2018-12-06T03:33:55.153Z,4.55
2018-12-06T03:36:23.374Z,4.59
2018-12-06T03:38:51.619Z,4.60
2018-12-06T03:41:19.847Z,4.58
2018-12-06T03:43:48.075Z,4.60
2018-12-06T03:46:16.421Z,4.67
2018-12-06T03:48:44.709Z,4.67
2018-12-06T03:51:12.957Z,4.66
2018-12-06T03:53:41.323Z,4.71
2018-12-06T03:56:09.553Z,4.65
2018-12-06T03:58:37.790Z,4.71
2018-12-06T04:01:06.285Z,4.75
2018-12-06T04:03:34.567Z,4.69
2018-12-06T04:06:02.912Z,4.71
2018-12-06T04:08:31.101Z,4.68
2018-12-06T04:10:59.392Z,4.74
2018-12-06T04:13:27.646Z,4.73
2018-12-06T04:15:55.922Z,4.70
2018-12-06T04:18:25.186Z,4.76
2018-12-06T04:20:53.610Z,4.78
2018-12-06T04:23:22.079Z,4.78
2018-12-06T04:25:50.285Z,4.78
2018-12-06T04:28:18.536Z,4.75
2018-12-06T04:30:46.818Z,4.81
2018-12-06T04:33:15.020Z,4.76
2018-12-06T04:35:43.302Z,4.78
2018-12-06T04:38:11.550Z,4.78
2018-12-06T04:40:39.833Z,4.70
2018-12-06T04:43:08.082Z,4.73
2018-12-06T04:45:36.275Z,4.72
2018-12-06T04:48:04.584Z,4.73
2018-12-06T04:50:32.821Z,4.81
2018-12-06T04:53:01.119Z,4.73
2018-12-06T04:55:29.411Z,4.79
2018-12-06T04:57:57.665Z,4.76
2018-12-06T05:00:25.935Z,4.78
2018-12-06T05:02:54.354Z,4.81
2018-12-06T05:05:22.590Z,4.81
2018-12-06T05:07:50.824Z,4.83
2018-12-06T05:10:19.078Z,4.84
2018-12-06T05:12:47.348Z,4.82
2018-12-06T05:15:15.570Z,4.82
2018-12-06T05:17:43.893Z,4.80
2018-12-06T05:20:12.253Z,4.81
2018-12-06T05:25:33.028Z,4.80
2018-12-06T05:28:01.326Z,4.79
2018-12-06T05:30:29.621Z,4.82
2018-12-06T05:32:57.852Z,4.82
2018-12-06T05:35:26.053Z,4.86
2018-12-06T05:37:54.316Z,4.91
2018-12-06T05:40:22.655Z,4.81
2018-12-06T05:42:50.904Z,4.83
2018-12-06T05:45:19.197Z,4.94
2018-12-06T05:47:47.470Z,4.98
2018-12-06T05:50:15.937Z,4.96
2018-12-06T05:52:44.289Z,4.96
2018-12-06T05:55:12.556Z,4.95
2018-12-06T05:57:40.790Z,5.01
2018-12-06T06:00:09.316Z,5.05
2018-12-06T06:02:37.499Z,5.05
2018-12-06T06:05:07.019Z,5.07
2018-12-06T06:07:35.260Z,5.13
2018-12-06T06:10:03.680Z,5.09
2018-12-06T06:12:32.126Z,5.06
2018-12-06T06:15:00.374Z,5.10
2018-12-06T06:17:28.642Z,5.15
2018-12-06T06:19:57.072Z,5.18
2018-12-06T06:22:25.312Z,5.20
2018-12-06T06:24:53.517Z,5.15
2018-12-06T06:27:21.899Z,5.15
2018-12-06T06:29:50.160Z,5.15
2018-12-06T06:32:18.430Z,5.15
2018-12-06T06:34:46.700Z,5.16
2018-12-06T06:37:14.970Z,5.15
2018-12-06T06:39:43.542Z,5.21
2018-12-06T06:42:11.814Z,5.19
2018-12-06T06:44:40.050Z,5.22
2018-12-06T06:47:08.262Z,5.23
2018-12-06T06:49:36.552Z,5.26
2018-12-06T06:52:04.827Z,5.25
2018-12-06T06:54:33.199Z,5.29
2018-12-06T06:57:01.426Z,5.35
2018-12-06T06:59:29.688Z,5.37
2018-12-06T07:01:57.947Z,5.39
2018-12-06T07:04:26.233Z,5.46
2018-12-06T07:06:54.502Z,5.42
2018-12-06T07:09:22.734Z,5.51
2018-12-06T07:11:50.967Z,5.54
2018-12-06T07:14:19.352Z,5.49
2018-12-06T07:16:47.668Z,5.45
2018-12-06T07:19:16.230Z,5.54
2018-12-06T07:21:44.490Z,5.48
2018-12-06T07:24:15.147Z,5.61
2018-12-06T07:26:45.013Z,5.66
2018-12-06T07:29:13.539Z,5.59
2018-12-06T07:31:58.332Z,5.62
2018-12-06T07:34:26.575Z,5.68
2018-12-06T07:36:54.922Z,5.71
2018-12-06T07:39:23.167Z,5.64
2018-12-06T07:41:51.478Z,5.67
2018-12-06T07:44:19.748Z,5.61
2018-12-06T07:46:51.035Z,5.68
2018-12-06T07:49:19.329Z,5.69
2018-12-06T07:51:47.645Z,5.72
2018-12-06T07:54:15.873Z,5.75
2018-12-06T07:56:44.140Z,5.77
2018-12-06T07:59:12.462Z,5.76
2018-12-06T08:01:40.744Z,5.78
2018-12-06T08:04:09.023Z,5.72
2018-12-06T08:06:37.281Z,5.69
2018-12-06T08:09:08.490Z,5.76
2018-12-06T08:11:38.563Z,5.79
2018-12-06T08:14:07.090Z,5.74
2018-12-06T08:16:35.659Z,5.72
2018-12-06T08:19:03.951Z,5.79
2018-12-06T08:21:32.247Z,5.80
2018-12-06T08:24:00.500Z,5.81
2018-12-06T08:26:29.154Z,5.82
2018-12-06T08:28:57.652Z,5.88
2018-12-06T08:31:26.010Z,5.85
2018-12-06T08:33:54.990Z,5.84
2018-12-06T08:36:23.424Z,5.84
2018-12-06T08:38:55.514Z,5.87
2018-12-06T08:41:23.801Z,5.88
2018-12-06T08:43:53.014Z,5.92
2018-12-06T08:46:21.310Z,5.85
2018-12-06T08:48:49.636Z,5.91
2018-12-06T08:51:17.854Z,5.93
2018-12-06T08:53:46.247Z,5.93
2018-12-06T08:56:15.227Z,5.99
2018-12-06T08:58:43.521Z,6.01
2018-12-06T09:01:12.180Z,6.00
2018-12-06T09:03:40.428Z,6.08
2018-12-06T09:06:08.660Z,6.03
2018-12-06T09:08:37.015Z,6.02
2018-12-06T09:11:05.389Z,6.02
2018-12-06T09:13:33.645Z,5.99
2018-12-06T09:16:01.925Z,6.09
2018-12-06T09:18:30.283Z,6.12
2018-12-06T09:20:58.639Z,6.14
2018-12-06T09:23:27.043Z,6.11
2018-12-06T09:25:57.049Z,6.15
2018-12-06T09:28:25.298Z,6.11
2018-12-06T09:31:00.880Z,6.09
2018-12-06T09:33:24.037Z,6.14
2018-12-06T09:35:52.257Z,6.16
2018-12-06T09:38:20.510Z,6.14
2018-12-06T09:40:48.943Z,6.18
2018-12-06T09:43:17.330Z,6.25
2018-12-06T09:45:45.750Z,6.26
2018-12-06T09:48:14.005Z,6.30
2018-12-06T09:50:42.341Z,6.31
2018-12-06T09:53:10.902Z,6.32
2018-12-06T09:55:39.203Z,6.40
2018-12-06T09:58:07.467Z,6.41
2018-12-06T10:00:35.936Z,6.45
2018-12-06T10:03:04.283Z,6.43
2018-12-06T10:05:32.685Z,6.49
2018-12-06T10:08:02.131Z,6.43
2018-12-06T10:10:30.376Z,6.61
2018-12-06T10:13:00.285Z,6.59
2018-12-06T10:15:28.607Z,6.59
2018-12-06T10:17:57.615Z,6.56
2018-12-06T10:20:25.876Z,6.56
2018-12-06T10:22:54.820Z,6.59
2018-12-06T10:25:24.706Z,6.59
2018-12-06T10:27:53.790Z,6.61
2018-12-06T10:30:22.881Z,6.71
2018-12-06T10:32:51.144Z,6.75
2018-12-06T10:35:19.482Z,6.80
2018-12-06T10:37:47.798Z,6.86
2018-12-06T10:40:16.070Z,6.90
2018-12-06T10:42:44.391Z,6.96
2018-12-06T10:45:15.449Z,6.98
2018-12-06T10:47:43.675Z,7.05
2018-12-06T10:50:12.807Z,7.08
2018-12-06T10:52:41.991Z,7.26
2018-12-06T10:55:10.314Z,7.31
2018-12-06T10:57:39.467Z,7.36
2018-12-06T11:00:10.152Z,7.37
2018-12-06T11:02:43.838Z,7.42
2018-12-06T11:05:12.178Z,7.45
2018-12-06T11:07:40.952Z,7.51
2018-12-06T11:10:09.284Z,7.49
2018-12-06T11:12:37.709Z,7.45
2018-12-06T11:15:06.623Z,7.45
2018-12-06T11:17:47.514Z,7.59
2018-12-06T11:20:15.845Z,7.61
2018-12-06T11:22:44.132Z,7.65
2018-12-06T11:25:12.490Z,7.73
2018-12-06T11:27:40.816Z,7.71
2018-12-06T11:30:09.280Z,7.66
2018-12-06T11:32:37.837Z,7.81
2018-12-06T11:35:06.110Z,7.86
2018-12-06T11:37:34.351Z,7.85
2018-12-06T11:40:02.578Z,7.89
2018-12-06T11:42:31.697Z,7.89
2018-12-06T11:44:59.975Z,7.96
2018-12-06T11:47:28.223Z,7.87
2018-12-06T11:52:49.254Z,8.13
2018-12-06T11:55:17.693Z,8.13
2018-12-06T11:57:46.301Z,8.19
2018-12-06T12:00:14.741Z,8.23
2018-12-06T12:02:42.962Z,8.24
2018-12-06T12:05:11.273Z,8.36
2018-12-06T12:07:39.551Z,8.37
2018-12-06T12:10:08.315Z,8.38
2018-12-06T12:12:36.570Z,8.44
2018-12-06T12:17:58.093Z,8.37
2018-12-06T12:20:26.363Z,8.44
2018-12-06T12:22:54.639Z,8.51
2018-12-06T12:25:22.868Z,8.43
2018-12-06T12:27:52.605Z,8.47
2018-12-06T12:30:21.055Z,8.42
2018-12-06T12:32:49.364Z,8.30
2018-12-06T12:35:18.831Z,8.33
2018-12-06T12:37:47.312Z,8.42
2018-12-06T12:40:15.613Z,8.53
2018-12-06T12:42:43.880Z,8.48
2018-12-06T12:45:12.257Z,8.57
2018-12-06T12:47:40.552Z,8.53
2018-12-06T12:50:10.689Z,8.52
2018-12-06T12:52:38.998Z,8.51
2018-12-06T12:55:07.566Z,8.64
2018-12-06T12:57:35.903Z,8.56
2018-12-06T13:02:57.359Z,8.61
2018-12-06T13:05:25.654Z,8.62
2018-12-06T13:07:53.891Z,8.73
2018-12-06T13:10:22.127Z,8.71
2018-12-06T13:12:50.476Z,8.69
2018-12-06T13:15:18.729Z,8.71
2018-12-06T13:17:47.115Z,8.84
2018-12-06T13:20:15.395Z,8.77
2018-12-06T13:22:43.622Z,8.81
2018-12-06T13:28:05.043Z,8.88
2018-12-06T13:30:33.351Z,8.96
2018-12-06T13:33:01.672Z,9.00
2018-12-06T13:35:30.055Z,9.02
2018-12-06T13:37:58.263Z,9.17
2018-12-06T13:40:26.583Z,9.12
2018-12-06T13:42:54.815Z,9.11
2018-12-06T13:45:23.047Z,9.24
2018-12-06T13:47:51.314Z,9.30
2018-12-06T13:50:19.564Z,9.20
2018-12-06T13:52:47.774Z,9.32
2018-12-06T13:55:16.075Z,9.33
2018-12-06T13:57:44.499Z,9.31
2018-12-06T14:00:12.923Z,9.38
2018-12-06T14:02:41.215Z,9.34
2018-12-06T14:05:09.584Z,9.44
2018-12-06T14:07:37.876Z,9.33
2018-12-06T14:10:06.184Z,9.38
2018-12-06T14:12:34.474Z,9.42
2018-12-06T14:15:02.708Z,9.44
2018-12-06T14:17:31.740Z,9.42
2018-12-06T14:20:00.023Z,9.43
2018-12-06T14:22:28.270Z,9.44
2018-12-06T14:24:56.558Z,9.46
2018-12-06T14:27:24.785Z,9.49
2018-12-06T14:29:53.250Z,9.53
2018-12-06T14:32:22.102Z,9.63
2018-12-06T14:34:50.829Z,9.61
2018-12-06T14:37:19.266Z,9.68
2018-12-06T14:39:47.565Z,9.65
2018-12-06T14:42:15.804Z,9.58
2018-12-06T14:44:44.032Z,9.58
2018-12-06T14:47:12.366Z,9.60
2018-12-06T14:49:40.621Z,9.53
2018-12-06T14:52:08.861Z,9.67
2018-12-06T14:54:37.156Z,9.66
2018-12-06T14:57:05.443Z,9.68
2018-12-06T14:59:34.521Z,9.64
2018-12-06T15:02:03.053Z,9.73
2018-12-06T15:04:31.312Z,9.70
2018-12-06T15:06:59.613Z,9.73
2018-12-06T15:09:27.935Z,9.66
2018-12-06T15:11:56.637Z,9.69
2018-12-06T15:14:24.987Z,9.74
2018-12-06T15:16:53.512Z,9.74
2018-12-06T15:19:21.774Z,9.74
2018-12-06T15:21:50.047Z,9.74
2018-12-06T15:24:18.295Z,9.70
2018-12-06T15:26:46.539Z,9.67
2018-12-06T15:29:14.874Z,9.72
2018-12-06T15:31:43.377Z,9.81
2018-12-06T15:34:11.677Z,9.84
2018-12-06T15:36:40.841Z,9.86
2018-12-06T15:39:09.268Z,9.90
2018-12-06T15:41:38.751Z,9.92
2018-12-06T15:44:07.067Z,9.95
2018-12-06T15:46:35.362Z,9.96
2018-12-06T15:49:03.769Z,9.99
2018-12-06T15:51:32.040Z,10.02
2018-12-06T15:54:00.274Z,10.00
2018-12-06T15:56:28.648Z,10.09
2018-12-06T15:58:57.938Z,10.10
2018-12-06T16:01:26.306Z,10.05
2018-12-06T16:03:54.578Z,10.02
2018-12-06T16:06:22.919Z,10.15
2018-12-06T16:08:51.388Z,10.14
2018-12-06T16:11:19.632Z,10.10
2018-12-06T16:13:49.553Z,10.20
2018-12-06T16:16:17.834Z,10.19
2018-12-06T16:18:46.609Z,10.19
2018-12-06T16:21:15.152Z,10.26
2018-12-06T16:23:43.490Z,10.27
2018-12-06T16:26:11.892Z,10.32
2018-12-06T16:28:40.153Z,10.29
2018-12-06T16:31:08.533Z,10.34
2018-12-06T16:33:36.754Z,10.32
2018-12-06T16:36:05.752Z,10.29
2018-12-06T16:38:34.009Z,10.39
2018-12-06T16:41:02.707Z,10.37
2018-12-06T16:43:30.987Z,10.43
2018-12-06T16:45:59.234Z,10.43
2018-12-06T16:48:27.506Z,10.44
2018-12-06T16:50:55.942Z,10.46
2018-12-06T16:53:24.259Z,10.47
2018-12-06T16:55:52.575Z,10.54
2018-12-06T16:58:20.832Z,10.53
2018-12-06T17:00:49.145Z,10.53
2018-12-06T17:03:18.219Z,10.59
2018-12-06T17:05:46.569Z,10.55
2018-12-06T17:08:14.919Z,10.64
2018-12-06T17:10:43.235Z,10.62
2018-12-06T17:13:11.485Z,10.55
2018-12-06T17:15:39.768Z,10.63
2018-12-06T17:18:08.055Z,10.65
2018-12-06T17:20:36.329Z,10.54
2018-12-06T17:23:10.724Z,10.54
2018-12-06T17:25:38.982Z,10.64
2018-12-06T17:28:07.268Z,10.69
2018-12-06T17:30:35.722Z,10.66
2018-12-06T17:33:04.052Z,10.67
2018-12-06T17:35:32.386Z,10.72
2018-12-06T17:38:00.643Z,10.70
2018-12-06T17:40:29.031Z,10.71
2018-12-06T17:42:57.260Z,10.66
2018-12-06T17:45:25.659Z,10.73
2018-12-06T17:47:53.933Z,10.74
2018-12-06T17:50:22.378Z,10.71
2018-12-06T17:52:50.630Z,10.69
2018-12-06T17:55:18.864Z,10.74
2018-12-06T17:57:47.214Z,10.82
2018-12-06T18:00:15.453Z,10.86
2018-12-06T18:02:44.020Z,10.83
2018-12-06T18:05:12.348Z,10.85
2018-12-06T18:07:40.731Z,10.85
2018-12-06T18:10:12.786Z,10.84
2018-12-06T18:12:41.109Z,10.85
2018-12-06T18:15:10.164Z,10.89
2018-12-06T18:18:09.317Z,10.87
2018-12-06T18:20:37.672Z,10.88
2018-12-06T18:23:06.108Z,10.84
2018-12-06T18:25:34.477Z,10.90
2018-12-06T18:28:02.793Z,10.93
2018-12-06T18:30:31.021Z,10.98
2018-12-06T18:32:59.279Z,10.89
2018-12-06T18:35:27.594Z,10.88
2018-12-06T18:37:56.714Z,10.93
2018-12-06T18:40:25.108Z,10.90
2018-12-06T18:42:53.481Z,10.86
2018-12-06T18:45:24.778Z,10.89
2018-12-06T18:50:01.876Z,10.94
2018-12-06T18:52:30.234Z,10.95
2018-12-06T18:54:58.509Z,10.92
2018-12-06T18:57:26.862Z,10.89
2018-12-06T18:59:55.135Z,10.90
2018-12-06T19:02:23.397Z,10.96
2018-12-06T19:04:51.695Z,10.96
2018-12-06T19:07:19.986Z,10.99
2018-12-06T19:09:48.454Z,11.00
2018-12-06T19:12:17.179Z,10.99
2018-12-06T19:14:45.493Z,11.01
2018-12-06T19:17:13.793Z,11.01
2018-12-06T19:19:42.150Z,11.07
2018-12-06T19:22:12.273Z,11.18
2018-12-06T19:24:40.503Z,11.07
2018-12-06T19:27:27.144Z,11.04
2018-12-06T19:29:55.512Z,11.06
2018-12-06T19:32:23.791Z,11.06
2018-12-06T19:34:52.394Z,11.06
2018-12-06T19:37:20.673Z,11.09
2018-12-06T19:39:49.063Z,11.08
2018-12-06T19:42:17.362Z,11.06
2018-12-06T19:44:45.644Z,11.08
2018-12-06T19:47:13.930Z,11.18
2018-12-06T19:49:42.286Z,11.08
2018-12-06T19:52:10.598Z,11.06
2018-12-06T19:54:38.934Z,11.15
2018-12-06T19:57:07.237Z,11.14
2018-12-06T19:59:35.510Z,11.16
2018-12-06T20:02:03.967Z,11.15
2018-12-06T20:04:32.233Z,11.13
2018-12-06T20:07:00.614Z,11.19
2018-12-06T20:09:28.895Z,11.18
2018-12-06T20:11:57.223Z,11.16
2018-12-06T20:14:25.547Z,11.10
2018-12-06T20:16:53.857Z,11.08
2018-12-06T20:19:22.223Z,11.02
2018-12-06T20:21:50.469Z,11.04
2018-12-06T20:24:18.850Z,11.07
2018-12-06T20:29:31.044Z,11.07
2018-12-06T20:31:59.463Z,11.03
2018-12-06T20:34:32.219Z,10.98
2018-12-06T20:37:00.647Z,10.99
2018-12-06T20:39:28.957Z,10.99
2018-12-06T20:41:57.305Z,10.97
2018-12-06T20:44:26.431Z,10.97
2018-12-06T20:46:54.886Z,11.04
2018-12-06T20:49:23.257Z,11.03
2018-12-06T20:51:51.575Z,11.02
2018-12-06T20:54:19.925Z,11.06
2018-12-06T20:56:48.211Z,11.05
2018-12-06T20:59:16.514Z,11.00
2018-12-06T21:01:44.839Z,10.98
2018-12-06T21:04:13.214Z,11.04
2018-12-06T21:06:41.806Z,10.96
2018-12-06T21:09:10.074Z,11.02
2018-12-06T21:11:38.380Z,11.01
2018-12-06T21:14:06.763Z,11.01
2018-12-06T21:16:35.088Z,11.01
2018-12-06T21:19:03.488Z,11.00
2018-12-06T21:21:31.801Z,11.05
2018-12-06T21:24:00.783Z,10.98
2018-12-06T21:26:29.068Z,10.99
2018-12-06T21:28:57.421Z,11.01
2018-12-06T21:31:25.777Z,10.98
2018-12-06T21:33:54.074Z,11.01
2018-12-06T21:36:22.433Z,11.07
2018-12-06T21:38:50.785Z,11.06
2018-12-06T21:41:19.186Z,11.12
2018-12-06T21:43:47.463Z,11.13
2018-12-06T21:46:15.731Z,11.09
2018-12-06T21:48:44.194Z,11.13
2018-12-06T21:51:12.522Z,11.11
2018-12-06T21:53:40.813Z,11.09
2018-12-06T21:56:09.064Z,11.11
2018-12-06T21:58:37.337Z,11.16
2018-12-06T22:01:05.580Z,11.11
2018-12-06T22:03:33.918Z,11.12
2018-12-06T22:06:02.304Z,11.12
2018-12-06T22:08:30.622Z,11.16
2018-12-06T22:10:58.918Z,11.16
2018-12-06T22:13:27.201Z,11.09
2018-12-06T22:15:55.498Z,11.16
2018-12-06T22:18:23.852Z,11.19
2018-12-06T22:20:52.163Z,11.16
2018-12-06T22:23:20.440Z,11.20
2018-12-06T22:25:48.731Z,11.14
2018-12-06T22:28:16.989Z,11.14
2018-12-06T22:30:45.264Z,11.10
2018-12-06T22:33:13.768Z,11.17
2018-12-06T22:35:42.053Z,11.14
2018-12-06T22:38:10.331Z,11.15
2018-12-06T22:40:38.562Z,11.15
2018-12-06T22:43:07.023Z,11.22
2018-12-06T22:46:06.227Z,11.21
2018-12-06T22:48:34.586Z,11.20
2018-12-06T22:51:02.850Z,11.23
2018-12-06T22:53:31.199Z,11.23
2018-12-06T22:55:59.467Z,11.20
2018-12-06T22:58:27.771Z,11.23
2018-12-06T23:00:59.116Z,11.24
2018-12-06T23:03:27.872Z,11.26
2018-12-06T23:05:56.249Z,11.29
2018-12-06T23:08:24.474Z,11.27
2018-12-06T23:10:52.801Z,11.27
2018-12-06T23:13:21.169Z,11.32
2018-12-06T23:15:49.559Z,11.35
2018-12-06T23:18:17.882Z,11.33
2018-12-06T23:20:46.129Z,11.35
2018-12-06T23:23:14.623Z,11.36
2018-12-06T23:25:42.919Z,11.40
2018-12-06T23:28:12.975Z,11.36
2018-12-06T23:30:41.389Z,11.34
2018-12-06T23:33:09.761Z,11.42
2018-12-06T23:35:38.094Z,11.43
2018-12-06T23:38:06.368Z,11.44
2018-12-06T23:40:34.719Z,11.44
2018-12-06T23:43:03.239Z,11.45
2018-12-06T23:45:31.523Z,11.42
2018-12-06T23:47:59.892Z,11.43
2018-12-06T23:50:28.079Z,11.45
2018-12-06T23:52:56.294Z,11.46
2018-12-06T23:55:24.518Z,11.49
2018-12-06T23:57:52.758Z,11.48
